Ledbetter, Texas
Current Conditions -  °F | °C
As of 12:15 PM on Thursday 29 Jan 2015 (Local Time) from KGYB Reporting Station
Scattered Clouds Scattered Clouds  
Wind Chill: 67°   Ceiling: Unl
Heat Index: 67°   Visibility: 10mi
Dew Point: 57°   Wind: 10mph
Humidity: 70%   Direction: 220°SW
Pressure: 30.28"   Gusts: NA
Location:  30.15°N, 96.79°W
Report Text: KGYB 291815Z AUTO 22009KT 10SM SCT019 19/14 A3028 RMK AO2 T01940138
Loading
Personal Weather Stations






























Interactive Weather Map New forecast layout! Learn more

10-Day Weather Forecast

Advertisements
Track Severe Weather on mobile